Time;durP1;ratioP1;P1;durP2;ratioP2;P2;SDS_P1;SDS_P2;PMS_P1;PMS_P2;Temp;Humidity;BMP_temperature;BMP_pressure;BME280_temperature;BME280_humidity;BME280_pressure;Samples;Min_cycle;Max_cycle;Signal;HPM_P1;HPM_P2
2021/10/24 00:03:42;;;;;;;37.10;18.80;;;;;;;5.89;64.05;100358.17;236628;1193;138611;-62
2021/10/24 00:08:45;;;;;;;37.50;17.90;;;;;;;5.89;64.16;100368.37;236699;1193;139009;-62
2021/10/24 00:13:48;;;;;;;34.70;17.90;;;;;;;5.91;64.27;100376.46;236546;1193;139430;-61
2021/10/24 00:18:51;;;;;;;36.30;18.00;;;;;;;5.90;64.14;100384.57;236565;1193;138903;-62
2021/10/24 00:23:54;;;;;;;43.70;19.10;;;;;;;5.86;64.36;100384.13;236729;1193;138479;-61
2021/10/24 00:28:57;;;;;;;39.20;17.70;;;;;;;5.90;64.45;100386.70;236588;1193;139624;-62
2021/10/24 00:34:00;;;;;;;38.40;18.70;;;;;;;5.93;64.36;100390.17;236898;1193;139723;-64
2021/10/24 00:39:04;;;;;;;37.10;18.10;;;;;;;5.97;64.40;100391.15;236763;1193;139196;-63
2021/10/24 00:44:21;;;;;;;39.30;18.10;;;;;;;5.98;64.63;100389.36;236609;1193;139096;-62
2021/10/24 00:49:25;;;;;;;40.70;19.10;;;;;;;5.95;64.48;100386.44;236579;1193;140250;-61
2021/10/24 00:54:29;;;;;;;38.40;18.00;;;;;;;5.90;64.26;100387.73;236549;1193;139284;-62
2021/10/24 00:59:34;;;;;;;39.00;18.80;;;;;;;5.85;64.39;100384.13;236688;1193;141636;-62
2021/10/24 01:04:37;;;;;;;35.40;19.20;;;;;;;5.80;64.56;100380.90;236836;1192;138906;-63
2021/10/24 01:09:40;;;;;;;37.70;19.20;;;;;;;5.78;64.55;100386.23;236743;1192;139847;-63
2021/10/24 01:14:43;;;;;;;42.30;19.60;;;;;;;5.77;64.47;100394.70;236559;1193;139809;-62
2021/10/24 01:19:46;;;;;;;39.60;20.20;;;;;;;5.78;64.64;100396.81;236664;1193;138955;-63
2021/10/24 01:24:50;;;;;;;40.90;20.00;;;;;;;5.79;64.52;100402.05;236621;1193;139026;-62
2021/10/24 01:29:53;;;;;;;43.40;19.50;;;;;;;5.79;64.64;100407.34;236657;1193;139550;-60
2021/10/24 01:34:59;;;;;;;41.10;20.10;;;;;;;5.78;64.53;100402.61;236695;1193;139465;-63
2021/10/24 01:40:06;;;;;;;40.70;19.90;;;;;;;5.73;64.59;100409.75;236991;1193;138690;-63
2021/10/24 01:45:10;;;;;;;44.00;20.70;;;;;;;5.68;64.86;100411.61;236732;1192;140024;-62
2021/10/24 01:50:14;;;;;;;43.00;20.10;;;;;;;5.64;64.76;100416.61;236551;1192;139665;-63
2021/10/24 01:55:21;;;;;;;42.40;19.30;;;;;;;5.62;64.81;100415.06;236516;1193;139085;-63
2021/10/24 02:00:25;;;;;;;41.80;21.20;;;;;;;5.60;64.93;100417.05;236575;1193;140057;-64
2021/10/24 02:05:28;;;;;;;39.50;18.80;;;;;;;5.58;64.88;100414.46;236809;1193;138791;-61
2021/10/24 02:10:32;;;;;;;41.40;20.40;;;;;;;5.52;64.82;100417.22;236670;1193;139290;-63
2021/10/24 02:15:36;;;;;;;35.90;19.70;;;;;;;5.45;64.96;100419.09;236571;1193;139216;-63
2021/10/24 02:20:41;;;;;;;37.00;19.90;;;;;;;5.39;65.09;100421.48;236524;1193;139125;-62
2021/10/24 02:25:45;;;;;;;41.50;20.60;;;;;;;5.37;65.22;100422.08;236404;1194;139238;-62
2021/10/24 02:30:49;;;;;;;38.90;19.50;;;;;;;5.38;65.31;100422.75;236569;1194;139828;-62
2021/10/24 02:36:21;;;;;;;37.90;18.70;;;;;;;5.40;65.37;100424.98;236589;1193;139753;-61
2021/10/24 02:41:30;;;;;;;35.60;18.20;;;;;;;5.42;65.31;100425.85;236536;1195;139426;-63
2021/10/24 02:46:34;;;;;;;37.50;18.30;;;;;;;5.45;65.29;100430.71;236645;1194;139894;-61
2021/10/24 02:51:44;;;;;;;37.10;16.40;;;;;;;5.45;65.53;100433.17;236470;1193;139598;-63
2021/10/24 02:56:49;;;;;;;35.90;17.40;;;;;;;5.42;65.56;100425.14;236690;1193;140253;-62
2021/10/24 03:01:52;;;;;;;38.70;18.40;;;;;;;5.37;65.75;100440.90;236644;1193;139286;-62
2021/10/24 03:06:56;;;;;;;37.80;17.80;;;;;;;5.38;65.86;100438.77;236590;1193;140523;-63
2021/10/24 03:11:59;;;;;;;32.10;17.30;;;;;;;5.41;65.58;100440.47;236606;1193;139419;-63
2021/10/24 03:17:02;;;;;;;35.70;17.30;;;;;;;5.42;65.82;100438.15;236497;1195;163245;-62
2021/10/24 03:22:10;;;;;;;37.10;18.90;;;;;;;5.44;66.17;100442.52;236595;1194;139456;-62
2021/10/24 03:27:14;;;;;;;35.80;17.00;;;;;;;5.43;65.91;100457.33;236821;1193;139061;-63
2021/10/24 03:32:18;;;;;;;34.90;18.30;;;;;;;5.42;66.00;100458.57;236588;1193;138667;-62
2021/10/24 03:37:21;;;;;;;39.90;18.80;;;;;;;5.41;66.15;100454.19;236528;1193;139760;-63
2021/10/24 03:42:26;;;;;;;40.20;17.70;;;;;;;5.44;66.04;100455.19;236852;1193;139684;-63
2021/10/24 03:47:29;;;;;;;41.00;17.80;;;;;;;5.50;65.94;100461.77;236443;1193;140429;-63
2021/10/24 03:52:33;;;;;;;39.20;18.40;;;;;;;5.54;65.97;100468.05;236832;1193;139587;-62
2021/10/24 03:57:36;;;;;;;36.50;17.00;;;;;;;5.54;66.13;100469.79;236742;1193;139605;-63
2021/10/24 04:02:55;;;;;;;33.50;17.10;;;;;;;5.55;66.02;100476.46;236787;1193;139074;-62
2021/10/24 04:08:01;;;;;;;35.50;18.00;;;;;;;5.55;66.17;100479.83;236543;1193;138731;-63
2021/10/24 04:13:05;;;;;;;;;;;;;;;5.52;66.06;100481.11;236558;1193;139673;-63
2021/10/24 04:18:09;;;;;;;36.20;17.80;;;;;;;5.47;66.24;100476.62;236775;1190;125495;-64
2021/10/24 04:23:15;;;;;;;46.70;19.60;;;;;;;5.40;65.98;100483.59;236425;1193;138945;-63
2021/10/24 04:28:20;;;;;;;39.20;17.60;;;;;;;5.38;66.21;100492.08;236505;1193;140913;-63
2021/10/24 04:33:23;;;;;;;36.30;18.10;;;;;;;5.40;66.15;100502.08;236046;1193;139261;-62
2021/10/24 04:38:28;;;;;;;39.90;18.80;;;;;;;5.44;66.61;100510.82;236539;1193;138795;-62
2021/10/24 04:43:32;;;;;;;34.40;17.30;;;;;;;5.49;66.41;100507.73;236565;1193;139641;-63
2021/10/24 04:48:35;;;;;;;34.30;17.20;;;;;;;5.53;66.37;100508.37;236670;1193;139084;-64
2021/10/24 04:53:38;;;;;;;38.80;17.80;;;;;;;5.51;66.52;100513.35;236568;1194;138679;-62
2021/10/24 04:58:43;;;;;;;35.70;17.80;;;;;;;5.44;66.46;100518.55;236413;1193;140671;-63
2021/10/24 05:03:48;;;;;;;39.30;17.40;;;;;;;5.46;66.28;100522.92;236599;1193;140231;-62
2021/10/24 05:08:53;;;;;;;32.90;17.70;;;;;;;5.54;66.45;100523.85;236588;1193;139768;-62
2021/10/24 05:13:56;;;;;;;36.50;18.60;;;;;;;5.60;66.68;100527.42;236551;1193;139139;-62
2021/10/24 05:18:59;;;;;;;32.70;16.80;;;;;;;5.64;66.56;100536.33;236885;1193;140913;-63
2021/10/24 05:24:03;;;;;;;32.10;16.40;;;;;;;5.64;66.53;100535.82;236911;1193;138953;-63
2021/10/24 05:29:07;;;;;;;35.70;18.40;;;;;;;5.60;66.45;100543.09;236649;1193;138762;-63
2021/10/24 05:34:10;;;;;;;41.60;17.80;;;;;;;5.58;66.74;100554.93;236398;1193;138629;-64
2021/10/24 05:39:40;;;;;;;39.60;18.20;;;;;;;5.57;66.57;100564.27;236641;1193;140666;-63
2021/10/24 05:45:03;;;;;;;36.00;17.40;;;;;;;5.64;66.55;100569.42;236465;1193;141076;-61
2021/10/24 05:50:07;;;;;;;35.20;18.80;;;;;;;5.75;66.53;100570.14;236535;1193;141592;-64
2021/10/24 05:55:10;;;;;;;42.30;19.60;;;;;;;5.84;66.76;100572.08;236351;1193;139819;-63
2021/10/24 06:00:14;;;;;;;39.80;18.00;;;;;;;5.88;66.66;100575.88;236587;1193;142468;-63
2021/10/24 06:05:35;;;;;;;34.60;17.40;;;;;;;5.95;66.89;100583.18;236604;1193;138869;-61
2021/10/24 06:10:40;;;;;;;37.20;16.90;;;;;;;5.99;66.53;100590.16;236387;1193;139877;-63
2021/10/24 06:15:43;;;;;;;32.50;17.30;;;;;;;5.95;66.55;100592.52;236467;1193;139604;-62
2021/10/24 06:20:46;;;;;;;37.50;18.40;;;;;;;5.89;66.31;100598.77;236366;1180;139334;-63
2021/10/24 06:25:49;;;;;;;35.80;18.10;;;;;;;5.81;66.30;100596.09;236606;1193;139763;-62
2021/10/24 06:30:52;;;;;;;35.40;19.50;;;;;;;5.71;66.44;100602.79;236535;1193;140216;-62
2021/10/24 06:35:56;;;;;;;41.70;21.40;;;;;;;5.56;66.35;100611.14;236675;1193;139163;-64
2021/10/24 06:41:07;;;;;;;48.20;25.20;;;;;;;5.39;66.55;100614.73;236539;1193;139876;-63
2021/10/24 06:46:13;;;;;;;44.60;25.90;;;;;;;5.29;66.69;100613.13;236465;1193;139054;-63
2021/10/24 06:51:48;;;;;;;50.40;27.60;;;;;;;5.23;67.14;100622.01;236230;1193;138936;-62
2021/10/24 06:56:59;;;;;;;43.90;26.10;;;;;;;5.21;67.25;100625.73;236562;1193;141502;-63
2021/10/24 07:02:37;;;;;;;49.00;26.70;;;;;;;5.29;67.70;100634.07;235989;1193;139964;-62
2021/10/24 07:07:44;;;;;;;;;;;;;;;5.38;67.58;100634.45;236653;1193;139392;-62
2021/10/24 07:12:51;;;;;;;49.00;29.30;;;;;;;5.45;67.80;100634.70;236203;1193;125494;-63
2021/10/24 07:17:55;;;;;;;54.60;30.10;;;;;;;5.49;67.75;100634.29;236195;1193;140725;-66
2021/10/24 07:22:58;;;;;;;54.10;28.40;;;;;;;5.54;67.84;100638.80;236443;1195;138862;-62
2021/10/24 07:28:20;;;;;;;57.20;28.90;;;;;;;5.59;68.09;100641.70;236653;1193;139033;-63
2021/10/24 07:33:23;;;;;;;48.10;26.60;;;;;;;5.67;67.92;100644.92;236803;1193;139702;-63
2021/10/24 07:38:56;;;;;;;53.70;30.00;;;;;;;5.78;67.97;100650.20;236450;1193;139371;-63
2021/10/24 07:44:00;;;;;;;50.40;30.50;;;;;;;5.92;68.08;100650.69;236641;1193;138819;-62
2021/10/24 07:49:03;;;;;;;50.70;29.10;;;;;;;6.06;68.01;100655.20;236536;1193;140767;-64
2021/10/24 07:54:07;;;;;;;50.30;27.10;;;;;;;6.19;68.03;100654.63;236700;1193;139272;-63
2021/10/24 07:59:11;;;;;;;41.60;26.10;;;;;;;6.29;68.16;100655.34;236646;1193;138712;-61
2021/10/24 08:04:14;;;;;;;51.50;28.00;;;;;;;6.36;67.96;100656.44;236439;1193;139450;-63
2021/10/24 08:09:22;;;;;;;45.50;25.10;;;;;;;6.44;67.90;100659.11;236567;1193;141010;-63
2021/10/24 08:14:26;;;;;;;41.60;25.60;;;;;;;6.58;67.97;100662.70;236509;1193;139386;-64
2021/10/24 08:19:30;;;;;;;42.10;24.80;;;;;;;6.76;68.12;100662.73;236598;1193;138947;-63
2021/10/24 08:24:36;;;;;;;42.70;25.40;;;;;;;6.90;68.04;100661.90;236675;1193;139365;-64
2021/10/24 08:30:09;;;;;;;43.80;25.60;;;;;;;7.04;68.01;100665.14;236584;1193;140121;-63
2021/10/24 08:35:19;;;;;;;45.40;25.50;;;;;;;7.15;68.07;100668.07;236480;1193;139613;-63
2021/10/24 08:40:22;;;;;;;44.30;25.30;;;;;;;7.25;67.90;100666.23;236672;1193;138986;-63
2021/10/24 08:45:27;;;;;;;43.10;23.40;;;;;;;7.38;67.75;100666.32;236621;1193;139874;-63
2021/10/24 08:50:32;;;;;;;39.30;24.80;;;;;;;7.50;67.77;100668.52;236663;1193;140245;-62
2021/10/24 08:55:36;;;;;;;39.90;24.00;;;;;;;7.62;67.57;100668.06;236888;1193;138853;-63
2021/10/24 09:00:40;;;;;;;40.60;23.30;;;;;;;7.72;67.72;100680.01;236789;1193;140164;-64
2021/10/24 09:05:44;;;;;;;41.00;22.00;;;;;;;7.79;67.48;100677.54;236813;1193;139762;-64
2021/10/24 09:10:52;;;;;;;36.80;21.10;;;;;;;7.88;67.33;100685.98;236382;1193;139616;-63
2021/10/24 09:16:04;;;;;;;36.00;20.80;;;;;;;8.00;67.20;100686.58;236580;1193;140213;-64
2021/10/24 09:21:17;;;;;;;30.60;18.70;;;;;;;8.13;67.24;100682.19;236778;1193;141023;-63
2021/10/24 09:26:25;;;;;;;46.30;21.30;;;;;;;8.28;66.94;100684.79;236684;1193;139822;-63
2021/10/24 09:31:42;;;;;;;36.70;18.40;;;;;;;8.42;66.72;100684.28;236717;1193;138707;-64
2021/10/24 09:36:59;;;;;;;38.80;17.50;;;;;;;8.54;67.01;100689.43;236838;1193;138712;-63
2021/10/24 09:42:23;;;;;;;41.50;19.60;;;;;;;8.65;66.57;100693.05;236784;1193;140636;-61
2021/10/24 09:47:26;;;;;;;29.90;15.60;;;;;;;8.70;66.38;100691.30;236445;1193;139282;-64
2021/10/24 09:52:31;;;;;;;40.70;18.10;;;;;;;8.78;66.13;100691.26;236470;1193;139289;-64
2021/10/24 09:57:38;;;;;;;18.40;10.20;;;;;;;8.89;66.12;100690.95;236288;1193;139700;-66
2021/10/24 10:02:43;;;;;;;28.10;13.70;;;;;;;9.95;68.45;100687.33;236459;1195;140120;-63
2021/10/24 10:07:46;;;;;;;122.90;70.70;;;;;;;10.21;65.39;100680.63;236570;1193;140642;-63
2021/10/24 10:12:51;;;;;;;43.60;20.40;;;;;;;10.56;66.68;100678.85;236470;1193;139713;-61
2021/10/24 10:18:01;;;;;;;27.90;13.00;;;;;;;11.46;65.83;100673.73;236380;1193;140219;-58
2021/10/24 10:23:07;;;;;;;141.50;86.70;;;;;;;11.38;63.48;100672.10;236619;1194;140339;-61
2021/10/24 10:28:15;;;;;;;25.20;13.10;;;;;;;11.23;62.87;100678.55;236545;1194;139656;-58
2021/10/24 10:33:39;;;;;;;26.40;10.80;;;;;;;11.12;62.61;100673.27;236319;1193;139909;-59
2021/10/24 10:38:43;;;;;;;23.90;9.50;;;;;;;11.09;62.31;100671.80;236690;1193;140328;-58
2021/10/24 10:44:08;;;;;;;19.40;8.30;;;;;;;11.40;62.82;100661.01;236488;1193;138903;-62
2021/10/24 10:49:30;;;;;;;21.10;9.00;;;;;;;11.42;61.89;100656.83;236602;1193;139918;-63
2021/10/24 10:54:55;;;;;;;17.20;8.00;;;;;;;11.33;61.32;100659.67;236631;1193;138958;-62
2021/10/24 11:00:00;;;;;;;23.00;7.80;;;;;;;11.23;60.89;100651.92;236645;1193;138572;-60
2021/10/24 11:05:05;;;;;;;15.50;7.00;;;;;;;11.20;60.85;100654.15;236597;1193;139458;-61
2021/10/24 11:10:43;;;;;;;15.30;4.90;;;;;;;11.18;60.53;100652.80;236653;1193;139752;-58
2021/10/24 11:15:47;;;;;;;367.70;190.50;;;;;;;11.26;60.16;100652.70;236530;1193;139333;-58
2021/10/24 11:20:50;;;;;;;28.80;13.50;;;;;;;11.29;59.81;100645.10;236636;1193;139773;-61
2021/10/24 11:25:53;;;;;;;16.20;6.10;;;;;;;11.32;59.64;100638.02;236656;1193;139073;-61
2021/10/24 11:31:01;;;;;;;15.50;4.80;;;;;;;11.42;59.92;100636.73;236743;1193;141283;-61
2021/10/24 11:36:05;;;;;;;13.30;3.60;;;;;;;11.49;59.59;100630.58;236376;1193;139770;-60
2021/10/24 11:41:20;;;;;;;12.10;2.60;;;;;;;11.60;58.91;100634.23;236485;1194;139163;-60
2021/10/24 11:46:23;;;;;;;9.40;2.40;;;;;;;11.67;58.13;100623.85;236700;1193;139257;-60
2021/10/24 11:51:27;;;;;;;10.60;2.50;;;;;;;11.77;57.58;100619.51;236586;1193;139486;-59
2021/10/24 12:01:36;;;;;;;16.70;7.80;;;;;;;11.95;56.98;100602.27;236604;1193;141387;-59
2021/10/24 12:07:01;;;;;;;8.60;3.30;;;;;;;12.04;56.49;100598.45;236705;1193;141277;-59
2021/10/24 12:12:34;;;;;;;8.80;3.30;;;;;;;12.07;55.78;100591.61;236560;1193;139483;-61
2021/10/24 12:17:38;;;;;;;10.60;4.10;;;;;;;12.05;55.57;100589.69;236529;1193;138713;-60
2021/10/24 12:23:02;;;;;;;10.30;3.60;;;;;;;12.05;55.26;100591.13;236588;1193;139660;-61
2021/10/24 12:28:25;;;;;;;11.10;3.60;;;;;;;12.03;55.17;100581.28;236612;1193;139847;-60
2021/10/24 12:33:37;;;;;;;8.90;3.60;;;;;;;12.03;55.15;100579.84;236529;1193;138968;-63
2021/10/24 12:38:53;;;;;;;9.30;3.10;;;;;;;12.01;54.90;100578.33;236504;1194;138537;-60
2021/10/24 12:43:56;;;;;;;9.00;3.10;;;;;;;12.02;54.70;100572.95;236617;1193;139108;-62
2021/10/24 12:49:09;;;;;;;10.60;3.10;;;;;;;12.07;54.77;100565.29;236561;1193;139876;-62
2021/10/24 12:54:30;;;;;;;10.10;3.50;;;;;;;12.16;54.90;100562.56;236666;1193;139178;-62
2021/10/24 12:59:34;;;;;;;7.40;3.00;;;;;;;12.25;54.68;100562.33;236735;1193;139132;-61
2021/10/24 13:04:37;;;;;;;11.20;3.30;;;;;;;12.35;54.80;100560.80;236523;1193;138693;-63
2021/10/24 13:09:40;;;;;;;8.80;3.50;;;;;;;12.49;54.60;100559.83;236648;1193;140632;-63
2021/10/24 13:14:46;;;;;;;10.40;3.50;;;;;;;12.66;54.26;100559.08;236645;1193;138903;-61
2021/10/24 13:19:49;;;;;;;;;;;;;;;12.68;53.86;100559.67;236740;1192;138998;-61
2021/10/24 13:24:52;;;;;;;10.90;3.50;;;;;;;12.65;54.04;100557.70;236857;1192;126853;-62
2021/10/24 13:29:55;;;;;;;10.10;3.00;;;;;;;12.59;53.72;100550.14;236698;1193;139835;-61
2021/10/24 13:34:58;;;;;;;59.90;38.90;;;;;;;12.52;53.70;100548.98;236554;1193;138935;-61
2021/10/24 13:40:01;;;;;;;10.20;4.00;;;;;;;12.48;53.58;100543.50;236738;1192;139335;-62
2021/10/24 13:45:06;;;;;;;11.40;2.70;;;;;;;12.44;53.07;100543.34;236713;1193;139177;-62
2021/10/24 13:50:13;;;;;;;6.30;2.80;;;;;;;12.37;52.53;100543.64;236382;1193;139755;-61
2021/10/24 13:55:18;;;;;;;12.80;5.00;;;;;;;12.42;53.36;100543.95;236755;1192;138843;-59
2021/10/24 14:00:21;;;;;;;13.70;3.70;;;;;;;12.55;52.93;100541.75;236737;1193;210998;-60
2021/10/24 14:05:24;;;;;;;9.20;3.80;;;;;;;12.42;52.87;100539.52;236565;1193;139369;-61
2021/10/24 14:10:28;;;;;;;8.30;3.10;;;;;;;12.28;52.41;100537.11;236609;1193;138983;-62
2021/10/24 14:15:31;;;;;;;10.10;3.50;;;;;;;12.15;52.56;100538.77;236555;1193;139466;-59
2021/10/24 14:20:35;;;;;;;10.30;3.00;;;;;;;12.05;52.98;100538.31;236563;1193;139447;-59
2021/10/24 14:25:38;;;;;;;12.60;3.50;;;;;;;11.97;52.62;100534.92;236590;1193;139329;-59
2021/10/24 14:30:41;;;;;;;9.40;4.40;;;;;;;11.88;52.60;100533.36;236839;1193;139257;-59
2021/10/24 14:35:49;;;;;;;8.00;3.20;;;;;;;11.79;52.86;100535.16;236422;1193;140178;-58
2021/10/24 14:40:53;;;;;;;6.90;3.50;;;;;;;11.69;52.89;100537.15;236728;1193;138622;-60
2021/10/24 14:45:56;;;;;;;8.70;3.10;;;;;;;11.61;53.08;100526.50;236495;1193;139409;-61
2021/10/24 14:51:02;;;;;;;12.60;3.30;;;;;;;11.51;53.05;100513.91;236505;1193;139394;-61
2021/10/24 14:56:05;;;;;;;8.30;3.30;;;;;;;11.43;53.21;100510.69;236547;1193;139067;-63
2021/10/24 15:01:08;;;;;;;7.80;3.30;;;;;;;11.35;53.23;100504.46;236723;1193;138749;-62
2021/10/24 15:06:12;;;;;;;12.20;5.20;;;;;;;11.27;53.31;100497.34;236644;1193;140455;-62
2021/10/24 15:11:15;;;;;;;10.40;3.20;;;;;;;11.26;53.89;100491.69;236513;1193;139357;-60
2021/10/24 15:16:23;;;;;;;10.50;3.30;;;;;;;11.20;53.62;100489.30;236474;1193;140566;-61
2021/10/24 15:21:26;;;;;;;8.20;3.30;;;;;;;11.08;53.65;100483.39;236592;1193;139231;-60
2021/10/24 15:26:29;;;;;;;9.10;3.60;;;;;;;10.94;53.42;100478.45;236665;1193;139535;-59
2021/10/24 15:31:34;;;;;;;8.20;3.40;;;;;;;10.78;53.56;100478.20;236690;1193;139561;-61
2021/10/24 15:36:37;;;;;;;11.80;3.80;;;;;;;10.64;53.79;100474.14;236816;1193;139063;-61
2021/10/24 15:41:40;;;;;;;10.50;3.90;;;;;;;10.49;53.73;100474.19;236604;1193;138795;-59
2021/10/24 15:46:43;;;;;;;9.10;4.20;;;;;;;10.34;54.01;100474.23;236267;1193;139149;-62
2021/10/24 15:51:47;;;;;;;10.10;3.90;;;;;;;10.19;54.14;100471.21;236313;1193;139170;-57
2021/10/24 15:56:50;;;;;;;14.00;4.90;;;;;;;10.06;54.17;100469.54;236571;1193;139367;-58
2021/10/24 16:01:53;;;;;;;11.00;5.10;;;;;;;9.92;54.25;100469.73;236586;1193;139305;-59
2021/10/24 16:06:56;;;;;;;17.80;7.30;;;;;;;9.77;54.52;100473.99;236675;1193;210365;-59
2021/10/24 16:12:00;;;;;;;19.10;8.90;;;;;;;9.65;54.67;100474.27;236493;1193;139076;-63
2021/10/24 16:17:03;;;;;;;25.30;14.30;;;;;;;9.55;55.07;100477.08;236504;1193;139098;-64
2021/10/24 16:22:06;;;;;;;32.30;16.00;;;;;;;9.47;54.85;100478.60;236653;1193;138962;-64
2021/10/24 16:27:12;;;;;;;27.40;14.10;;;;;;;9.37;55.19;100481.74;236678;1193;139154;-63
2021/10/24 16:32:15;;;;;;;20.70;11.90;;;;;;;9.30;55.16;100485.71;236561;1194;139525;-61
2021/10/24 16:37:20;;;;;;;41.40;22.60;;;;;;;9.32;56.02;100485.30;236462;1193;139057;-64
2021/10/24 16:42:23;;;;;;;22.20;11.10;;;;;;;9.37;56.01;100474.84;236635;1193;138810;-62
2021/10/24 16:47:26;;;;;;;17.00;9.10;;;;;;;9.25;55.66;100481.09;236578;1193;138916;-64
2021/10/24 16:52:29;;;;;;;18.80;7.70;;;;;;;9.09;55.59;100473.13;236550;1193;139148;-63
2021/10/24 16:57:32;;;;;;;16.50;7.70;;;;;;;8.94;55.85;100467.78;236488;1193;139571;-60
2021/10/24 17:02:36;;;;;;;21.40;7.60;;;;;;;8.82;56.21;100472.24;236495;1193;138547;-63
2021/10/24 17:07:40;;;;;;;19.40;7.50;;;;;;;8.71;56.31;100476.28;236477;1193;138683;-63
2021/10/24 17:12:43;;;;;;;17.90;7.40;;;;;;;8.64;56.65;100477.58;236626;1193;138403;-62
2021/10/24 17:17:46;;;;;;;15.10;7.00;;;;;;;8.59;56.63;100476.84;236524;1193;138670;-64
2021/10/24 17:22:50;;;;;;;32.90;13.70;;;;;;;8.51;56.68;100474.45;236506;1193;139205;-62
2021/10/24 17:27:53;;;;;;;22.90;10.50;;;;;;;8.46;57.29;100472.45;236481;1193;138824;-63
2021/10/24 17:32:56;;;;;;;23.00;8.50;;;;;;;8.45;57.19;100465.23;236528;1193;138410;-60
2021/10/24 17:37:59;;;;;;;21.40;9.00;;;;;;;8.38;57.16;100462.60;236391;1193;138124;-63
2021/10/24 17:43:02;;;;;;;19.70;9.30;;;;;;;8.31;57.31;100458.02;236761;1193;138572;-59
2021/10/24 17:48:07;;;;;;;22.60;10.80;;;;;;;8.25;57.35;100457.33;236659;1193;138528;-61
2021/10/24 17:53:10;;;;;;;23.40;10.20;;;;;;;8.19;57.30;100452.90;236624;1187;138690;-62
2021/10/24 17:58:14;;;;;;;23.10;11.70;;;;;;;8.10;57.49;100453.16;236533;1193;138877;-62
2021/10/24 18:03:19;;;;;;;26.90;11.90;;;;;;;8.01;57.58;100447.05;236373;1193;139100;-58
2021/10/24 18:08:22;;;;;;;27.30;12.20;;;;;;;7.92;57.82;100439.73;236502;1193;140369;-61
2021/10/24 18:13:25;;;;;;;25.90;12.80;;;;;;;7.85;57.91;100434.98;236511;1193;140790;-64
2021/10/24 18:18:28;;;;;;;42.20;24.20;;;;;;;7.80;58.56;100427.34;236662;1193;138447;-61
2021/10/24 18:23:32;;;;;;;32.20;14.90;;;;;;;7.91;58.85;100426.33;236580;1193;139807;-61
2021/10/24 18:28:36;;;;;;;32.80;16.10;;;;;;;7.83;58.34;100424.61;236574;1193;139171;-58
2021/10/24 18:33:40;;;;;;;31.30;16.00;;;;;;;7.71;58.40;100422.99;236387;1193;139085;-59
2021/10/24 18:38:44;;;;;;;33.60;16.90;;;;;;;7.62;58.60;100426.26;236540;1193;139604;-62
2021/10/24 18:43:48;;;;;;;62.50;32.90;;;;;;;7.58;58.73;100418.43;236547;1193;138745;-63
2021/10/24 18:48:51;;;;;;;43.40;20.90;;;;;;;7.59;58.90;100416.63;236523;1193;139884;-59
2021/10/24 18:53:54;;;;;;;39.80;18.60;;;;;;;7.61;58.92;100422.20;236643;1187;139992;-62
2021/10/24 18:58:58;;;;;;;38.70;19.10;;;;;;;7.50;58.88;100424.64;236532;1193;138719;-61
2021/10/24 19:04:01;;;;;;;47.40;23.80;;;;;;;7.43;59.22;100427.46;236329;1193;138779;-62
2021/10/24 19:09:04;;;;;;;54.10;22.60;;;;;;;7.44;59.17;100424.45;236564;1193;139624;-60
2021/10/24 19:14:08;;;;;;;49.60;23.00;;;;;;;7.44;59.19;100420.58;236497;1193;139431;-61
2021/10/24 19:19:12;;;;;;;44.40;22.30;;;;;;;7.40;59.21;100422.09;236682;1193;138878;-60
2021/10/24 19:24:15;;;;;;;43.00;21.70;;;;;;;7.36;59.12;100422.55;236810;1192;138849;-59
2021/10/24 19:29:19;;;;;;;40.20;20.90;;;;;;;7.32;59.25;100415.94;237423;1192;138601;-60
2021/10/24 19:34:22;;;;;;;37.70;19.50;;;;;;;7.26;59.37;100415.05;236750;1193;139059;-60
2021/10/24 19:39:25;;;;;;;43.90;19.90;;;;;;;7.22;59.36;100414.79;236546;1193;139064;-61
2021/10/24 19:44:28;;;;;;;39.90;19.50;;;;;;;7.19;59.16;100416.29;236596;1193;139282;-59
2021/10/24 19:49:31;;;;;;;44.60;19.70;;;;;;;7.17;59.48;100411.05;236606;1193;138607;-61
2021/10/24 19:54:36;;;;;;;40.00;19.10;;;;;;;7.15;59.56;100406.51;236817;1193;139243;-58
2021/10/24 19:59:39;;;;;;;52.70;25.00;;;;;;;7.16;59.72;100397.65;236559;1193;140201;-58
2021/10/24 20:04:42;;;;;;;42.00;19.50;;;;;;;7.18;59.56;100395.84;236537;1193;139632;-57
2021/10/24 20:09:45;;;;;;;39.60;19.20;;;;;;;7.12;59.37;100390.16;236641;1193;138933;-58
2021/10/24 20:14:49;;;;;;;42.40;19.20;;;;;;;7.07;59.36;100392.06;236579;1193;139538;-59
2021/10/24 20:19:52;;;;;;;39.10;18.30;;;;;;;7.02;59.38;100393.27;236495;1193;138620;-57
2021/10/24 20:24:59;;;;;;;36.30;18.00;;;;;;;6.98;59.60;100393.19;236568;1193;138766;-60
2021/10/24 20:30:06;;;;;;;37.60;18.00;;;;;;;6.92;59.61;100394.91;236713;1193;138763;-59
2021/10/24 20:35:09;;;;;;;36.30;17.90;;;;;;;6.86;59.58;100399.65;236592;1192;139410;-64
2021/10/24 20:40:12;;;;;;;34.90;17.60;;;;;;;6.82;59.87;100406.81;236482;1195;139819;-63
2021/10/24 20:45:15;;;;;;;32.20;16.30;;;;;;;6.75;60.00;100404.16;236370;1193;138859;-64
2021/10/24 20:50:18;;;;;;;33.60;16.20;;;;;;;6.67;59.91;100402.05;236129;1193;141117;-61
2021/10/24 20:55:22;;;;;;;34.20;15.90;;;;;;;6.62;60.07;100400.94;236482;1193;139434;-61
2021/10/24 21:00:26;;;;;;;39.50;16.80;;;;;;;6.63;60.01;100397.23;236546;1193;138896;-61
2021/10/24 21:05:29;;;;;;;35.90;16.10;;;;;;;6.65;60.25;100391.53;236610;1193;139527;-60
2021/10/24 21:10:32;;;;;;;29.50;16.70;;;;;;;6.63;60.13;100388.59;236604;1193;139188;-61
2021/10/24 21:15:36;;;;;;;33.10;16.20;;;;;;;6.62;60.17;100387.36;236583;1193;139520;-60
2021/10/24 21:20:39;;;;;;;27.30;15.20;;;;;;;6.59;60.21;100383.73;236538;1193;139364;-57
2021/10/24 21:25:43;;;;;;;30.40;15.30;;;;;;;6.51;60.27;100386.57;236501;1193;138434;-60
2021/10/24 21:30:46;;;;;;;30.20;14.80;;;;;;;6.44;60.23;100387.63;236678;1193;139584;-61
2021/10/24 21:35:51;;;;;;;245.90;127.60;;;;;;;6.41;60.58;100387.15;236564;1193;138604;-63
2021/10/24 21:40:54;;;;;;;33.90;18.00;;;;;;;6.45;60.74;100383.22;236508;1193;139713;-61
2021/10/24 21:45:57;;;;;;;28.80;15.20;;;;;;;6.36;60.44;100386.21;236281;1193;138755;-61
2021/10/24 21:51:01;;;;;;;27.90;14.50;;;;;;;6.23;60.57;100391.99;236266;1193;139227;-65
2021/10/24 21:56:05;;;;;;;33.20;14.80;;;;;;;6.12;60.64;100386.41;236552;1193;139189;-60
2021/10/24 22:01:08;;;;;;;28.70;15.20;;;;;;;6.03;60.90;100384.33;236766;1193;138888;-64
2021/10/24 22:06:12;;;;;;;31.70;15.60;;;;;;;5.98;60.92;100388.13;236551;1193;139413;-58
2021/10/24 22:11:15;;;;;;;34.70;16.10;;;;;;;5.91;60.98;100386.29;236003;1193;140151;-63
2021/10/24 22:16:19;;;;;;;29.50;15.00;;;;;;;5.86;60.99;100383.77;236085;1193;139733;-61
2021/10/24 22:21:23;;;;;;;31.50;16.10;;;;;;;5.80;61.14;100381.79;236686;1193;138954;-61
2021/10/24 22:26:27;;;;;;;30.10;15.20;;;;;;;5.76;61.29;100379.06;236636;1193;141167;-60
2021/10/24 22:31:35;;;;;;;28.90;14.90;;;;;;;5.75;61.56;100375.20;236585;1193;140142;-63
2021/10/24 22:36:38;;;;;;;31.00;16.80;;;;;;;5.75;61.57;100373.96;236744;1193;138905;-61
2021/10/24 22:41:42;;;;;;;33.30;17.30;;;;;;;5.75;61.43;100371.49;236599;1193;139202;-61
2021/10/24 22:46:45;;;;;;;30.60;16.50;;;;;;;5.72;61.57;100366.10;236604;1193;139390;-59
2021/10/24 22:51:57;;;;;;;30.90;17.40;;;;;;;5.66;61.42;100367.98;236537;1193;138714;-60
2021/10/24 22:57:00;;;;;;;30.20;17.20;;;;;;;5.61;61.51;100365.62;236774;1193;138843;-61
2021/10/24 23:02:04;;;;;;;30.60;16.40;;;;;;;5.57;61.75;100361.13;236568;1193;139234;-61